createdAt,value
2019-02-18T00:02:03.352Z,2.85
2019-02-18T00:03:03.331Z,2.79
2019-02-18T00:04:03.288Z,2.79
2019-02-18T00:05:03.300Z,2.95
2019-02-18T00:06:03.292Z,3.00
2019-02-18T00:07:03.263Z,3.05
2019-02-18T00:08:03.270Z,2.98
2019-02-18T00:09:03.319Z,2.94
2019-02-18T00:10:03.228Z,2.71
2019-02-18T00:11:03.214Z,2.71
2019-02-18T00:12:03.224Z,2.69
2019-02-18T00:13:03.199Z,2.67
2019-02-18T00:14:03.275Z,2.66
2019-02-18T00:15:03.204Z,2.53
2019-02-18T00:16:03.161Z,2.49
2019-02-18T00:17:03.151Z,2.66
2019-02-18T00:18:03.148Z,2.73
2019-02-18T00:19:03.156Z,2.87
2019-02-18T00:20:03.145Z,2.76
2019-02-18T00:21:03.132Z,2.87
2019-02-18T00:22:03.095Z,3.00
2019-02-18T00:23:03.093Z,3.05
2019-02-18T00:24:03.079Z,2.98
2019-02-18T00:25:03.101Z,2.91
2019-02-18T00:26:03.107Z,3.02
2019-02-18T00:27:03.049Z,3.02
2019-02-18T00:28:03.032Z,3.05
2019-02-18T00:29:03.032Z,2.84
2019-02-18T00:30:03.025Z,2.70
2019-02-18T00:31:03.002Z,2.64
2019-02-18T00:32:03.022Z,2.61
2019-02-18T00:33:02.972Z,2.46
2019-02-18T00:34:02.968Z,2.37
2019-02-18T00:35:02.964Z,2.44
2019-02-18T00:36:02.957Z,2.44
2019-02-18T00:37:02.962Z,2.45
2019-02-18T00:38:02.965Z,2.38
2019-02-18T00:39:02.922Z,2.49
2019-02-18T00:40:02.897Z,2.59
2019-02-18T00:41:02.894Z,2.67
2019-02-18T00:42:02.876Z,2.71
2019-02-18T00:43:02.891Z,2.56
2019-02-18T00:44:02.861Z,2.69
2019-02-18T00:45:02.855Z,2.67
2019-02-18T00:46:02.846Z,2.76
2019-02-18T00:47:02.835Z,2.76
2019-02-18T00:48:02.814Z,2.79
2019-02-18T00:49:02.821Z,2.79
2019-02-18T00:50:02.794Z,2.73
2019-02-18T00:51:02.843Z,2.74
2019-02-18T00:52:02.813Z,2.66
2019-02-18T00:53:04.123Z,2.64
2019-02-18T00:54:02.770Z,2.77
2019-02-18T00:55:02.777Z,2.71
2019-02-18T00:56:02.754Z,2.73
2019-02-18T00:57:02.732Z,2.46
2019-02-18T00:58:02.722Z,2.48
2019-02-18T00:59:02.733Z,2.37
2019-02-18T01:00:02.689Z,2.40
2019-02-18T01:01:02.683Z,2.48
2019-02-18T01:02:02.724Z,2.35
2019-02-18T01:03:02.663Z,2.51
2019-02-18T01:04:02.642Z,2.44
2019-02-18T01:05:12.330Z,2.48
2019-02-18T01:07:14.785Z,2.46
2019-02-18T01:08:15.770Z,2.40
2019-02-18T01:10:11.566Z,2.52
2019-02-18T01:11:11.559Z,2.45
2019-02-18T01:13:26.034Z,2.59
2019-02-18T01:14:25.662Z,2.56
2019-02-18T01:16:31.772Z,2.40
2019-02-18T01:17:31.706Z,2.27
2019-02-18T01:18:31.703Z,2.30
2019-02-18T01:19:31.683Z,2.28
2019-02-18T01:20:31.690Z,2.27
2019-02-18T01:21:31.651Z,2.10
2019-02-18T01:22:31.641Z,1.99
2019-02-18T01:23:41.303Z,1.97
2019-02-18T01:25:36.134Z,2.09
2019-02-18T01:26:36.089Z,2.06
2019-02-18T01:27:44.913Z,1.94
2019-02-18T01:29:40.587Z,1.98
2019-02-18T01:30:40.513Z,1.97
2019-02-18T01:33:13.656Z,1.97
2019-02-18T01:34:13.630Z,1.94
2019-02-18T01:35:13.621Z,1.94
2019-02-18T01:36:13.609Z,1.94
2019-02-18T01:37:23.322Z,2.02
2019-02-18T01:39:18.113Z,2.10
2019-02-18T01:40:18.042Z,1.98
2019-02-18T01:42:11.634Z,1.87
2019-02-18T01:43:11.614Z,1.90
2019-02-18T01:44:11.595Z,2.01
2019-02-18T01:45:11.603Z,2.13
2019-02-18T01:46:11.614Z,2.06
2019-02-18T01:47:11.567Z,2.10
2019-02-18T01:48:11.552Z,1.97
2019-02-18T01:49:11.561Z,1.99
2019-02-18T01:50:11.557Z,1.97
2019-02-18T01:51:11.527Z,1.85
2019-02-18T01:52:11.541Z,1.89
2019-02-18T01:53:11.496Z,1.78
2019-02-18T01:54:11.494Z,1.68
2019-02-18T01:55:11.477Z,1.75
2019-02-18T01:56:11.467Z,1.71
2019-02-18T01:57:20.134Z,1.62
2019-02-18T01:59:15.962Z,1.64
2019-02-18T02:00:15.914Z,1.62
2019-02-18T02:01:15.891Z,1.64
2019-02-18T02:02:15.885Z,1.71
2019-02-18T02:03:15.890Z,1.75
2019-02-18T02:04:15.869Z,1.69
2019-02-18T02:05:15.864Z,1.64
2019-02-18T02:06:15.919Z,1.65
2019-02-18T02:07:15.823Z,1.60
2019-02-18T02:08:15.819Z,1.58
2019-02-18T02:09:15.801Z,1.78
2019-02-18T02:10:15.790Z,1.85
2019-02-18T02:11:15.775Z,1.82
2019-02-18T02:12:15.763Z,1.85
2019-02-18T02:13:15.756Z,1.90
2019-02-18T02:14:15.748Z,1.91
2019-02-18T02:15:15.727Z,1.87
2019-02-18T02:16:15.724Z,1.71
2019-02-18T02:17:15.735Z,1.73
2019-02-18T02:18:15.741Z,1.68
2019-02-18T02:19:15.682Z,1.69
2019-02-18T02:20:15.684Z,1.87
2019-02-18T02:21:15.662Z,1.64
2019-02-18T02:22:15.647Z,1.60
2019-02-18T02:23:15.635Z,1.52
2019-02-18T02:24:15.643Z,1.55
2019-02-18T02:25:15.615Z,1.54
2019-02-18T02:26:15.593Z,1.51
2019-02-18T02:27:15.591Z,1.62
2019-02-18T02:28:15.584Z,1.51
2019-02-18T02:29:15.571Z,1.61
2019-02-18T02:30:15.582Z,1.57
2019-02-18T02:31:15.550Z,1.68
2019-02-18T02:32:15.527Z,1.64
2019-02-18T02:33:15.529Z,1.71
2019-02-18T02:34:15.518Z,1.61
2019-02-18T02:35:15.497Z,1.60
2019-02-18T02:36:15.505Z,1.57
2019-02-18T02:37:15.489Z,1.60
2019-02-18T02:38:15.456Z,1.64
2019-02-18T02:39:15.448Z,1.64
2019-02-18T02:40:15.460Z,1.62
2019-02-18T02:41:15.445Z,1.60
2019-02-18T02:42:15.466Z,1.58
2019-02-18T02:43:15.456Z,1.60
2019-02-18T02:44:15.410Z,1.57
2019-02-18T02:45:15.375Z,1.55
2019-02-18T02:46:15.383Z,1.47
2019-02-18T02:47:15.356Z,1.42
2019-02-18T02:48:15.336Z,1.52
2019-02-18T02:49:15.324Z,1.50
2019-02-18T02:50:15.320Z,1.54
2019-02-18T02:51:15.326Z,1.52
2019-02-18T02:52:15.329Z,1.51
2019-02-18T02:53:15.285Z,1.43
2019-02-18T02:54:15.265Z,1.54
2019-02-18T02:55:15.257Z,1.52
2019-02-18T03:13:20.925Z,1.40
2019-02-18T03:14:20.822Z,1.55
2019-02-18T03:15:20.853Z,1.57
2019-02-18T03:16:20.845Z,1.60
2019-02-18T03:17:20.839Z,1.65
2019-02-18T03:18:20.765Z,1.61
2019-02-18T03:19:20.866Z,1.69
2019-02-18T03:20:20.749Z,1.76
2019-02-18T03:21:20.710Z,1.82
2019-02-18T03:22:20.699Z,1.78
2019-02-18T03:23:20.682Z,1.75
2019-02-18T03:24:20.676Z,1.65
2019-02-18T03:25:20.656Z,1.68
2019-02-18T03:26:20.634Z,1.62
2019-02-18T03:27:20.647Z,1.65
2019-02-18T03:28:20.608Z,1.72
2019-02-18T03:29:20.603Z,1.78
2019-02-18T03:30:20.592Z,1.79
2019-02-18T03:31:20.591Z,1.89
2019-02-18T03:32:20.566Z,1.89
2019-02-18T03:33:20.566Z,1.94
2019-02-18T03:34:20.534Z,1.87
2019-02-18T03:35:20.539Z,1.85
2019-02-18T03:36:29.172Z,1.75
2019-02-18T03:38:31.675Z,1.58
2019-02-18T03:39:26.000Z,1.55
2019-02-18T03:40:26.033Z,1.60
2019-02-18T03:41:34.690Z,1.47
2019-02-18T03:43:30.507Z,1.36
2019-02-18T03:44:30.466Z,1.12
2019-02-18T03:45:30.459Z,1.24
2019-02-18T03:46:30.502Z,1.40
2019-02-18T03:47:30.411Z,1.26
2019-02-18T03:48:30.407Z,1.34
2019-02-18T03:49:30.391Z,1.37
2019-02-18T03:50:30.383Z,1.25
2019-02-18T03:51:30.394Z,1.36
2019-02-18T03:52:30.377Z,1.36
2019-02-18T03:53:30.339Z,1.33
2019-02-18T03:54:30.328Z,1.42
2019-02-18T03:55:30.356Z,1.46
2019-02-18T03:56:30.352Z,1.44
2019-02-18T03:57:30.384Z,1.43
2019-02-18T03:58:30.281Z,1.37
2019-02-18T03:59:30.282Z,1.40
2019-02-18T04:00:30.279Z,1.34
2019-02-18T04:01:30.258Z,1.37
2019-02-18T04:02:30.277Z,1.16
2019-02-18T04:03:30.269Z,1.08
2019-02-18T04:04:30.263Z,1.21
2019-02-18T04:05:30.197Z,1.12
2019-02-18T04:06:30.185Z,1.16
2019-02-18T04:07:30.187Z,1.08
2019-02-18T04:08:30.179Z,1.14
2019-02-18T04:09:30.147Z,1.12
2019-02-18T04:10:30.159Z,1.07
2019-02-18T04:11:30.129Z,1.00
2019-02-18T04:12:30.218Z,0.90
2019-02-18T04:13:30.167Z,0.98
2019-02-18T04:14:30.099Z,1.03
2019-02-18T04:15:30.088Z,1.04
2019-02-18T04:16:30.125Z,0.83
2019-02-18T04:17:30.064Z,0.89
2019-02-18T04:18:30.076Z,0.86
2019-02-18T04:19:30.073Z,0.90
2019-02-18T04:20:30.072Z,0.89
2019-02-18T04:21:30.034Z,0.82
2019-02-18T04:22:29.993Z,0.88
2019-02-18T04:23:30.072Z,0.86
2019-02-18T04:24:30.048Z,0.78
2019-02-18T04:25:29.988Z,0.80
2019-02-18T04:26:29.943Z,0.82
2019-02-18T04:27:29.934Z,0.86
2019-02-18T04:28:29.916Z,0.92
2019-02-18T04:29:29.905Z,0.92
2019-02-18T04:30:29.939Z,0.98
2019-02-18T04:31:29.891Z,0.98
2019-02-18T04:32:29.915Z,0.94
2019-02-18T04:33:29.887Z,0.92
2019-02-18T04:34:29.851Z,0.86
2019-02-18T04:35:29.885Z,0.96
2019-02-18T04:36:29.823Z,1.04
2019-02-18T04:37:29.818Z,1.06
2019-02-18T04:38:29.798Z,1.07
2019-02-18T04:39:29.808Z,1.08
2019-02-18T04:40:29.767Z,1.06
2019-02-18T04:41:29.774Z,1.04
2019-02-18T04:42:29.771Z,1.22
2019-02-18T04:43:29.747Z,1.18
2019-02-18T04:44:29.736Z,1.24
2019-02-18T04:45:29.744Z,1.21
2019-02-18T04:46:29.705Z,1.21
2019-02-18T04:47:29.686Z,1.34
2019-02-18T04:48:29.678Z,1.42
2019-02-18T04:49:29.672Z,1.36
2019-02-18T04:50:29.661Z,1.36
2019-02-18T04:51:29.672Z,1.42
2019-02-18T04:52:29.649Z,1.16
2019-02-18T04:53:29.617Z,1.12
2019-02-18T04:54:29.593Z,1.14
2019-02-18T04:55:29.603Z,0.94
2019-02-18T04:56:29.627Z,0.71
2019-02-18T04:57:31.386Z,0.75
2019-02-18T04:58:29.563Z,0.53
2019-02-18T04:59:29.532Z,0.72
2019-02-18T05:00:29.575Z,0.49
2019-02-18T05:01:29.526Z,0.53
2019-02-18T05:02:29.549Z,0.58
2019-02-18T05:03:29.480Z,0.46
2019-02-18T05:04:29.470Z,0.39
2019-02-18T05:05:29.463Z,0.51
2019-02-18T05:06:29.465Z,0.60
2019-02-18T05:07:38.125Z,0.64
2019-02-18T05:09:34.961Z,0.65
2019-02-18T05:10:34.906Z,0.70
2019-02-18T05:11:34.909Z,0.65
2019-02-18T05:12:34.952Z,0.61
2019-02-18T05:13:34.930Z,0.71
2019-02-18T05:14:34.855Z,0.67
2019-02-18T05:15:34.910Z,0.75
2019-02-18T05:16:34.832Z,0.80
2019-02-18T05:17:34.816Z,0.78
2019-02-18T05:18:34.823Z,0.65
2019-02-18T05:19:34.790Z,0.58
2019-02-18T05:20:34.776Z,0.75
2019-02-18T05:21:34.786Z,0.71
2019-02-18T05:22:34.763Z,0.75
2019-02-18T05:23:34.744Z,0.71
2019-02-18T05:24:34.730Z,0.75
2019-02-18T05:25:34.778Z,0.79
2019-02-18T05:26:34.716Z,0.82
2019-02-18T05:27:34.694Z,0.82
2019-02-18T05:28:34.692Z,0.83
2019-02-18T05:29:34.690Z,0.82
2019-02-18T05:30:34.661Z,0.78
2019-02-18T05:31:34.639Z,0.75
2019-02-18T05:32:34.633Z,0.75
2019-02-18T05:33:34.635Z,0.83
2019-02-18T05:34:34.611Z,0.89
2019-02-18T05:37:07.754Z,0.79
2019-02-18T05:38:07.726Z,0.80
2019-02-18T05:39:17.380Z,0.89
2019-02-18T05:40:07.718Z,0.78
2019-02-18T05:41:07.693Z,0.62
2019-02-18T05:42:07.671Z,0.57
2019-02-18T05:43:07.669Z,0.46
2019-02-18T05:44:07.663Z,0.34
2019-02-18T05:45:07.658Z,0.39
2019-02-18T05:46:08.694Z,0.31
2019-02-18T05:47:07.610Z,0.31
2019-02-18T05:48:07.600Z,0.48
2019-02-18T05:49:07.588Z,0.65
2019-02-18T05:50:07.574Z,0.82
2019-02-18T05:51:07.557Z,0.62
2019-02-18T05:52:07.550Z,0.65
2019-02-18T05:53:07.541Z,0.78
2019-02-18T05:54:07.530Z,0.71
2019-02-18T05:55:07.509Z,0.60
2019-02-18T05:56:07.507Z,0.76
2019-02-18T05:57:07.493Z,0.83
2019-02-18T05:58:07.483Z,0.82
2019-02-18T05:59:07.483Z,0.79
2019-02-18T06:00:07.448Z,0.89
2019-02-18T06:01:16.154Z,0.83
2019-02-18T06:03:11.911Z,0.85
2019-02-18T06:04:11.920Z,0.82
2019-02-18T06:05:11.877Z,0.90
2019-02-18T06:06:11.861Z,0.80
2019-02-18T06:07:11.858Z,0.48
2019-02-18T06:08:12.153Z,0.48
2019-02-18T06:09:11.947Z,0.39
2019-02-18T06:10:11.874Z,0.53
2019-02-18T06:11:11.825Z,0.58
2019-02-18T06:12:11.771Z,0.62
2019-02-18T06:13:11.825Z,0.68
2019-02-18T06:14:11.747Z,0.79
2019-02-18T06:15:11.767Z,0.76
2019-02-18T06:16:11.760Z,0.72
2019-02-18T06:17:11.738Z,0.78
2019-02-18T06:18:11.718Z,0.90
2019-02-18T06:19:11.767Z,0.76
2019-02-18T06:20:11.722Z,0.76
2019-02-18T06:21:11.684Z,0.85
2019-02-18T06:22:11.666Z,0.80
2019-02-18T06:23:11.656Z,0.82
2019-02-18T06:24:11.643Z,0.78
2019-02-18T06:25:11.600Z,0.76
2019-02-18T06:26:11.663Z,0.61
2019-02-18T06:27:11.612Z,0.64
2019-02-18T06:28:11.563Z,0.62
2019-02-18T06:29:11.573Z,0.57
2019-02-18T06:30:11.574Z,0.61
2019-02-18T06:31:11.537Z,0.71
2019-02-18T06:32:11.514Z,0.72
2019-02-18T06:33:11.514Z,0.70
2019-02-18T06:34:11.553Z,0.71
2019-02-18T06:35:11.510Z,0.86
2019-02-18T06:36:11.499Z,0.76
2019-02-18T06:37:11.468Z,0.82
2019-02-18T06:38:11.440Z,0.75
2019-02-18T06:39:11.471Z,0.53
2019-02-18T06:40:11.453Z,0.57
2019-02-18T06:41:11.413Z,0.57
2019-02-18T06:42:11.460Z,0.36
2019-02-18T06:43:11.375Z,0.38
2019-02-18T06:44:11.372Z,0.39
2019-02-18T06:45:12.044Z,0.45
2019-02-18T06:46:11.369Z,0.72
2019-02-18T06:47:11.341Z,0.64
2019-02-18T06:48:11.319Z,0.78
2019-02-18T06:49:11.301Z,0.82
2019-02-18T06:50:11.315Z,0.79
2019-02-18T06:51:11.270Z,0.80
2019-02-18T06:52:11.281Z,0.68
2019-02-18T06:53:11.253Z,0.79
2019-02-18T06:54:11.242Z,0.76
2019-02-18T06:55:11.228Z,0.64
2019-02-18T06:56:11.241Z,0.75
2019-02-18T06:57:11.205Z,0.65
2019-02-18T06:58:12.722Z,0.61
2019-02-18T06:59:11.177Z,0.60
2019-02-18T07:00:11.157Z,0.61
2019-02-18T07:01:11.194Z,0.58
2019-02-18T07:02:11.158Z,0.52
2019-02-18T07:03:11.182Z,0.48
2019-02-18T07:04:11.149Z,0.43
2019-02-18T07:05:11.111Z,0.57
2019-02-18T07:06:11.131Z,0.46
2019-02-18T07:07:11.096Z,0.65
2019-02-18T07:08:11.206Z,0.72
2019-02-18T07:09:11.049Z,0.75
2019-02-18T07:10:11.030Z,0.68
2019-02-18T07:11:11.034Z,0.82
2019-02-18T07:12:11.013Z,0.88
2019-02-18T07:13:10.996Z,0.89
2019-02-18T07:14:10.981Z,1.04
2019-02-18T07:15:10.991Z,1.12
2019-02-18T07:16:10.959Z,1.19
2019-02-18T07:17:10.975Z,1.15
2019-02-18T07:18:10.936Z,1.19
2019-02-18T07:19:10.914Z,1.19
2019-02-18T07:20:10.968Z,1.19
2019-02-18T07:21:10.895Z,1.26
2019-02-18T07:22:10.884Z,1.33
2019-02-18T07:23:10.880Z,1.40
2019-02-18T07:24:10.887Z,1.34
2019-02-18T07:25:10.859Z,1.39
2019-02-18T07:26:10.845Z,1.36
2019-02-18T07:27:10.815Z,1.40
2019-02-18T07:28:10.806Z,1.37
2019-02-18T07:29:10.812Z,1.39
2019-02-18T07:30:10.777Z,1.37
2019-02-18T07:31:10.784Z,1.39
2019-02-18T07:32:10.750Z,1.42
2019-02-18T07:33:10.749Z,1.46
2019-02-18T07:34:10.728Z,1.50
2019-02-18T07:35:10.712Z,1.52
2019-02-18T07:36:10.708Z,1.60
2019-02-18T07:37:10.723Z,1.65
2019-02-18T07:38:10.671Z,1.68
2019-02-18T07:39:10.680Z,1.60
2019-02-18T07:40:10.658Z,1.80
2019-02-18T07:41:10.650Z,1.83
2019-02-18T07:42:10.659Z,1.83
2019-02-18T07:43:10.619Z,1.87
2019-02-18T07:44:10.605Z,1.99
2019-02-18T07:45:10.600Z,2.01
2019-02-18T07:46:10.579Z,2.12
2019-02-18T07:47:10.583Z,2.09
2019-02-18T07:48:10.586Z,2.17
2019-02-18T07:49:10.545Z,2.20
2019-02-18T07:50:20.006Z,2.27
2019-02-18T07:51:10.526Z,2.35
2019-02-18T07:52:10.534Z,2.41
2019-02-18T07:53:10.494Z,2.40
2019-02-18T07:54:10.534Z,2.49
2019-02-18T07:55:10.474Z,2.41
2019-02-18T07:56:10.454Z,2.40
2019-02-18T07:57:10.465Z,2.53
2019-02-18T07:58:10.443Z,2.58
2019-02-18T07:59:10.422Z,2.64
2019-02-18T08:00:10.432Z,2.79
2019-02-18T08:01:10.455Z,2.76
2019-02-18T08:02:10.402Z,2.85
2019-02-18T08:03:10.374Z,2.98
2019-02-18T08:04:10.363Z,3.00
2019-02-18T08:05:10.367Z,3.15
2019-02-18T08:06:10.378Z,3.18
2019-02-18T08:07:10.350Z,3.15
2019-02-18T08:08:10.322Z,3.18
2019-02-18T08:09:10.327Z,3.23
2019-02-18T08:10:12.376Z,3.27
2019-02-18T08:11:10.341Z,3.36
2019-02-18T08:12:10.263Z,3.46
2019-02-18T08:13:10.256Z,3.54
2019-02-18T08:14:10.270Z,3.68
2019-02-18T08:15:10.252Z,3.78
2019-02-18T08:16:10.287Z,3.82
2019-02-18T08:17:10.221Z,3.92
2019-02-18T08:18:10.207Z,3.96
2019-02-18T08:19:10.275Z,4.03
2019-02-18T08:20:10.200Z,4.18
2019-02-18T08:21:10.159Z,4.18
2019-02-18T08:22:10.152Z,4.21
2019-02-18T08:23:10.170Z,4.32
2019-02-18T08:24:10.122Z,4.32
2019-02-18T08:25:10.117Z,4.36
2019-02-18T08:26:10.132Z,4.54
2019-02-18T08:27:10.109Z,4.61
2019-02-18T08:28:10.091Z,4.70
2019-02-18T08:29:10.069Z,4.84
2019-02-18T08:30:10.076Z,4.96
2019-02-18T08:31:10.076Z,4.92
2019-02-18T08:32:10.841Z,5.09
2019-02-18T08:33:10.041Z,4.98
2019-02-18T08:34:10.022Z,5.05
2019-02-18T08:35:10.004Z,5.12
2019-02-18T08:36:10.048Z,5.19
2019-02-18T08:37:10.013Z,5.13
2019-02-18T08:38:10.019Z,5.28
2019-02-18T08:39:09.968Z,5.28
2019-02-18T08:40:09.971Z,5.30
2019-02-18T08:41:09.962Z,5.17
2019-02-18T08:42:09.966Z,5.12
2019-02-18T08:43:09.954Z,5.35
2019-02-18T08:44:09.911Z,5.40
2019-02-18T08:45:09.989Z,5.48
2019-02-18T08:46:09.896Z,5.38
2019-02-18T08:47:09.887Z,5.55
2019-02-18T08:48:09.875Z,5.57
2019-02-18T08:49:09.867Z,5.60
2019-02-18T08:50:09.891Z,5.67
2019-02-18T08:51:09.870Z,5.67
2019-02-18T08:52:09.825Z,5.73
2019-02-18T08:53:10.085Z,5.75
2019-02-18T08:54:09.829Z,5.82
2019-02-18T08:55:09.803Z,5.92
2019-02-18T08:56:09.800Z,5.91
2019-02-18T08:57:09.785Z,5.75
2019-02-18T08:58:09.794Z,5.78
2019-02-18T08:59:11.138Z,5.77
2019-02-18T09:00:09.830Z,5.82
2019-02-18T09:01:09.752Z,5.78
2019-02-18T09:02:09.754Z,5.89
2019-02-18T09:03:09.758Z,5.95
2019-02-18T09:04:09.716Z,5.93
2019-02-18T09:05:09.730Z,5.92
2019-02-18T09:06:09.688Z,5.92
2019-02-18T09:07:09.697Z,5.85
2019-02-18T09:08:09.705Z,5.89
2019-02-18T09:09:09.698Z,5.98
2019-02-18T09:10:09.661Z,6.09
2019-02-18T09:11:09.649Z,6.18
2019-02-18T09:12:09.636Z,6.14
2019-02-18T09:13:09.632Z,6.43
2019-02-18T09:14:09.620Z,6.38
2019-02-18T09:15:09.656Z,6.48
2019-02-18T09:16:09.603Z,6.62
2019-02-18T09:17:09.591Z,6.65
2019-02-18T09:18:09.582Z,6.65
2019-02-18T09:19:09.592Z,6.63
2019-02-18T09:20:09.582Z,6.65
2019-02-18T09:21:09.577Z,6.63
2019-02-18T09:22:09.579Z,6.72
2019-02-18T09:23:09.588Z,6.68
2019-02-18T09:24:09.542Z,6.84
2019-02-18T09:25:09.531Z,6.97
2019-02-18T09:26:09.518Z,6.90
2019-02-18T09:27:09.527Z,6.90
2019-02-18T09:28:09.544Z,6.94
2019-02-18T09:29:09.527Z,6.84
2019-02-18T09:30:09.470Z,6.87
2019-02-18T09:31:09.468Z,6.97
2019-02-18T09:32:09.454Z,7.09
2019-02-18T09:33:09.460Z,7.19
2019-02-18T09:34:09.465Z,7.15
2019-02-18T09:35:09.486Z,7.22
2019-02-18T09:36:09.418Z,7.29
2019-02-18T09:37:09.424Z,7.35
2019-02-18T09:38:09.425Z,7.27
2019-02-18T09:39:09.419Z,7.26
2019-02-18T09:40:09.394Z,7.35
2019-02-18T09:41:09.392Z,7.35
2019-02-18T09:42:09.375Z,7.44
2019-02-18T09:43:09.355Z,7.59
2019-02-18T09:44:09.359Z,7.59
2019-02-18T09:45:09.355Z,7.62
2019-02-18T09:46:09.333Z,7.45
2019-02-18T09:47:09.347Z,7.55
2019-02-18T09:48:09.318Z,7.49
2019-02-18T09:49:09.372Z,7.60
2019-02-18T09:50:17.971Z,7.74
2019-02-18T09:52:02.723Z,7.77
2019-02-18T09:53:02.730Z,7.84
2019-02-18T09:54:02.675Z,7.89
2019-02-18T09:55:02.674Z,8.00
2019-02-18T09:56:02.655Z,8.15
2019-02-18T09:57:02.649Z,8.17
2019-02-18T09:58:02.642Z,8.15
2019-02-18T09:59:02.643Z,8.14
2019-02-18T10:00:02.653Z,8.07
2019-02-18T10:01:02.654Z,7.94
2019-02-18T10:02:02.642Z,8.11
2019-02-18T10:03:02.604Z,8.02
2019-02-18T10:04:02.616Z,8.18
2019-02-18T10:05:02.636Z,8.10
2019-02-18T10:06:02.615Z,8.21
2019-02-18T10:07:02.578Z,8.20
2019-02-18T10:08:02.561Z,8.21
2019-02-18T10:09:02.572Z,8.22
2019-02-18T10:10:04.639Z,8.11
2019-02-18T10:11:02.568Z,8.18
2019-02-18T10:12:02.564Z,8.33
2019-02-18T10:13:02.549Z,8.26
2019-02-18T10:14:02.507Z,8.26
2019-02-18T10:15:02.555Z,8.36
2019-02-18T10:16:02.501Z,8.36
2019-02-18T10:17:02.496Z,8.44
2019-02-18T10:18:02.502Z,8.44
2019-02-18T10:19:02.470Z,8.42
2019-02-18T10:20:02.477Z,8.50
2019-02-18T10:21:02.492Z,8.51
2019-02-18T10:22:02.470Z,8.50
2019-02-18T10:23:02.463Z,8.45
2019-02-18T10:24:02.440Z,8.50
2019-02-18T10:25:02.444Z,8.63
2019-02-18T10:26:02.483Z,8.69
2019-02-18T10:27:02.422Z,8.62
2019-02-18T10:28:02.411Z,8.68
2019-02-18T10:29:02.420Z,8.60
2019-02-18T10:30:02.382Z,8.60
2019-02-18T10:31:02.383Z,8.65
2019-02-18T10:32:02.397Z,8.65
2019-02-18T10:33:02.369Z,8.71
2019-02-18T10:34:02.358Z,8.65
2019-02-18T10:35:02.356Z,8.69
2019-02-18T10:36:02.359Z,8.81
2019-02-18T10:37:02.328Z,8.83
2019-02-18T10:38:02.331Z,8.87
2019-02-18T10:39:02.337Z,8.88
2019-02-18T10:40:02.342Z,8.81
2019-02-18T10:41:07.093Z,8.81
2019-02-18T10:42:02.300Z,8.84
2019-02-18T10:43:02.290Z,8.84
2019-02-18T10:44:02.311Z,8.81
2019-02-18T10:45:02.282Z,8.83
2019-02-18T10:46:02.289Z,8.91
2019-02-18T10:47:02.257Z,8.90
2019-02-18T10:48:02.277Z,9.06
2019-02-18T10:49:02.256Z,9.06
2019-02-18T10:50:02.270Z,9.24
2019-02-18T10:51:02.228Z,9.25
2019-02-18T10:52:02.233Z,9.30
2019-02-18T10:53:02.213Z,9.38
2019-02-18T10:54:02.227Z,9.42
2019-02-18T10:55:02.232Z,9.40
2019-02-18T10:56:02.197Z,9.38
2019-02-18T10:57:02.185Z,9.45
2019-02-18T10:58:02.190Z,9.53
2019-02-18T10:59:02.171Z,9.57
2019-02-18T11:00:02.174Z,9.52
2019-02-18T11:01:02.183Z,9.57
2019-02-18T11:02:02.182Z,9.60
2019-02-18T11:03:02.170Z,9.60
2019-02-18T11:04:02.177Z,9.64
2019-02-18T11:05:02.172Z,9.58
2019-02-18T11:06:02.139Z,9.86
2019-02-18T11:07:02.139Z,10.14
2019-02-18T11:08:02.145Z,10.18
2019-02-18T11:09:02.165Z,10.15
2019-02-18T11:10:02.151Z,10.06
2019-02-18T11:11:02.208Z,9.99
2019-02-18T11:12:02.147Z,9.96
2019-02-18T11:13:02.198Z,9.85
2019-02-18T11:14:02.117Z,9.88
2019-02-18T11:15:02.113Z,9.94
2019-02-18T11:16:02.165Z,10.01
2019-02-18T11:17:02.107Z,10.14
2019-02-18T11:18:02.115Z,10.03
2019-02-18T11:19:02.023Z,10.03
2019-02-18T11:20:02.024Z,10.07
2019-02-18T11:21:02.017Z,10.18
2019-02-18T11:22:02.019Z,10.26
2019-02-18T11:23:01.999Z,10.28
2019-02-18T11:24:01.990Z,10.37
2019-02-18T11:25:01.998Z,10.39
2019-02-18T11:26:01.977Z,10.34
2019-02-18T11:27:01.973Z,10.40
2019-02-18T11:28:01.995Z,10.40
2019-02-18T11:29:02.008Z,10.46
2019-02-18T11:30:01.961Z,10.56
2019-02-18T11:31:01.943Z,10.58
2019-02-18T11:32:01.942Z,10.63
2019-02-18T11:33:01.950Z,10.56
2019-02-18T11:34:01.961Z,10.65
2019-02-18T11:35:01.923Z,10.83
2019-02-18T11:36:01.931Z,10.92
2019-02-18T11:37:01.912Z,11.09
2019-02-18T11:38:01.912Z,11.21
2019-02-18T11:39:01.894Z,11.17
2019-02-18T11:40:01.895Z,11.25
2019-02-18T11:41:01.892Z,11.14
2019-02-18T11:42:01.885Z,11.11
2019-02-18T11:43:01.874Z,11.10
2019-02-18T11:44:01.861Z,11.17
2019-02-18T11:45:01.866Z,11.14
2019-02-18T11:46:01.878Z,11.09
2019-02-18T11:47:01.857Z,11.06
2019-02-18T11:48:01.859Z,10.96
2019-02-18T11:49:01.838Z,11.03
2019-02-18T11:50:01.823Z,11.27
2019-02-18T11:51:01.835Z,11.27
2019-02-18T11:52:01.816Z,11.25
2019-02-18T11:53:01.824Z,11.32
2019-02-18T11:54:01.834Z,11.28
2019-02-18T11:55:01.806Z,11.38
2019-02-18T11:56:01.803Z,11.46
2019-02-18T11:57:01.799Z,11.49
2019-02-18T11:58:01.790Z,11.44
2019-02-18T11:59:01.785Z,11.47
2019-02-18T12:00:01.767Z,11.53
2019-02-18T12:01:01.767Z,11.46
2019-02-18T12:02:01.779Z,11.47
2019-02-18T12:03:06.825Z,11.49
2019-02-18T12:04:01.755Z,11.54
2019-02-18T12:05:01.766Z,11.59
2019-02-18T12:06:01.734Z,11.61
2019-02-18T12:07:01.734Z,11.65
2019-02-18T12:08:01.727Z,11.65
2019-02-18T12:09:01.720Z,11.70
2019-02-18T12:10:01.715Z,11.74
2019-02-18T12:11:01.707Z,11.56
2019-02-18T12:12:01.713Z,11.67
2019-02-18T12:13:01.710Z,11.74
2019-02-18T12:14:01.693Z,11.74
2019-02-18T12:15:01.689Z,11.80
2019-02-18T12:16:01.674Z,11.93
2019-02-18T12:17:01.684Z,11.87
2019-02-18T12:18:01.670Z,11.82
2019-02-18T12:19:01.703Z,11.86
2019-02-18T12:20:01.678Z,11.83
2019-02-18T12:21:01.649Z,12.13
2019-02-18T12:22:01.651Z,12.26
2019-02-18T12:23:01.637Z,12.23
2019-02-18T12:24:01.657Z,12.29
2019-02-18T12:25:01.649Z,12.13
2019-02-18T12:26:01.674Z,12.11
2019-02-18T12:27:01.617Z,12.21
2019-02-18T12:28:01.617Z,12.44
2019-02-18T12:29:01.613Z,12.26
2019-02-18T12:30:01.630Z,12.24
2019-02-18T12:31:01.608Z,12.24
2019-02-18T12:32:01.595Z,12.23
2019-02-18T12:33:01.590Z,12.26
2019-02-18T12:34:01.614Z,12.39
2019-02-18T12:35:01.629Z,12.42
2019-02-18T12:36:01.593Z,12.41
2019-02-18T12:37:01.569Z,12.56
2019-02-18T12:38:01.578Z,12.60
2019-02-18T12:39:01.568Z,12.54
2019-02-18T12:40:01.557Z,12.45
2019-02-18T12:41:01.551Z,12.44
2019-02-18T12:42:01.543Z,12.42
2019-02-18T12:43:01.566Z,12.41
2019-02-18T12:44:01.544Z,12.48
2019-02-18T12:45:01.530Z,12.42
2019-02-18T12:46:01.549Z,12.51
2019-02-18T12:47:01.520Z,12.45
2019-02-18T12:48:01.557Z,12.57
2019-02-18T12:49:01.533Z,12.64
2019-02-18T12:50:01.607Z,12.66
2019-02-18T12:51:01.536Z,12.67
2019-02-18T12:52:01.505Z,12.75
2019-02-18T12:53:01.515Z,12.67
2019-02-18T12:54:04.958Z,12.69
2019-02-18T12:55:01.552Z,12.66
2019-02-18T12:56:01.516Z,12.70
2019-02-18T12:57:01.497Z,12.97
2019-02-18T12:58:01.502Z,12.95
2019-02-18T12:59:01.514Z,12.96
2019-02-18T13:00:01.556Z,12.99
2019-02-18T13:01:01.479Z,12.97
2019-02-18T13:02:01.484Z,12.92
2019-02-18T13:03:01.465Z,12.82
2019-02-18T13:04:01.456Z,12.81
2019-02-18T13:05:01.454Z,12.97
2019-02-18T13:06:01.433Z,12.96
2019-02-18T13:07:01.449Z,13.03
2019-02-18T13:08:02.850Z,13.18
2019-02-18T13:09:01.496Z,13.51
2019-02-18T13:10:01.421Z,13.65
2019-02-18T13:11:01.454Z,13.76
2019-02-18T13:12:01.466Z,13.77
2019-02-18T13:13:01.420Z,13.63
2019-02-18T13:14:01.419Z,13.67
2019-02-18T13:15:01.392Z,13.54
2019-02-18T13:16:01.391Z,13.54
2019-02-18T13:17:01.425Z,13.73
2019-02-18T13:19:01.397Z,13.89
2019-02-18T13:20:01.387Z,13.74
2019-02-18T13:21:01.360Z,13.61
2019-02-18T13:22:01.364Z,13.47
2019-02-18T13:23:01.365Z,13.37
2019-02-18T13:24:01.351Z,13.36
2019-02-18T13:25:01.354Z,13.70
2019-02-18T13:26:01.379Z,13.88
2019-02-18T13:27:01.367Z,13.80
2019-02-18T13:28:08.286Z,13.77
2019-02-18T13:29:01.357Z,13.84
2019-02-18T13:30:01.323Z,13.67
2019-02-18T13:31:01.323Z,13.63
2019-02-18T13:32:01.335Z,13.62
2019-02-18T13:33:01.321Z,13.55
2019-02-18T13:34:01.316Z,13.59
2019-02-18T13:35:01.349Z,13.46
2019-02-18T13:36:01.326Z,13.37
2019-02-18T13:37:01.319Z,13.32
2019-02-18T13:38:01.322Z,13.37
2019-02-18T13:39:01.323Z,13.18
2019-02-18T13:40:01.339Z,13.22
2019-02-18T13:41:01.324Z,13.32
2019-02-18T13:42:07.156Z,13.62
2019-02-18T13:43:01.275Z,13.89
2019-02-18T13:44:01.294Z,13.89
2019-02-18T13:45:01.278Z,13.89
2019-02-18T13:46:01.269Z,13.96
2019-02-18T13:47:01.300Z,14.04
2019-02-18T13:48:01.253Z,14.25
2019-02-18T13:49:01.246Z,14.16
2019-02-18T13:50:01.245Z,14.14
2019-02-18T13:51:01.275Z,14.14